Fairview, Montana
Current Conditions -  °F | °C
As of 1:55 PM on Friday 31 Oct 2014 (Local Time) from KSDY Reporting Station
Clear Clear  
Wind Chill: 40°   Ceiling: Unl
Heat Index: 48°   Visibility: 10mi
Dew Point: 28°   Wind: 26mph
Humidity: 46%   Direction: 140°SE
Pressure: 30.03"   Gusts: 32mph
Location:  47.86°N, 104.04°W
Report Text: KSDY 311955Z AUTO 14023G28KT 10SM CLR 09/M02 A3003 RMK AO1
Loading
Personal Weather Stations






























Interactive Weather Map
Tropical Storm Tracking
New forecast layout! Learn more

10-Day Weather Forecast

Advertisements
Track Severe Weather on mobile